Time;durP1;ratioP1;P1;durP2;ratioP2;P2;SDS_P1;SDS_P2;PMS_P1;PMS_P2;Temp;Humidity;BMP_temperature;BMP_pressure;BME280_temperature;BME280_humidity;BME280_pressure;Samples;Min_cycle;Max_cycle;Signal;HPM_P1;HPM_P2
2022/06/25 00:01:06;;;;;;;0.20;0.20;;;;;;;;;;5015716;28;20039;-74
2022/06/25 00:03:32;;;;;;;0.57;0.57;;;;;;;;;;5018409;28;20120;-74
2022/06/25 00:05:57;;;;;;;0.55;0.55;;;;;;;;;;5017381;28;20109;-73
2022/06/25 00:08:23;;;;;;;0.55;0.28;;;;;;;;;;5025537;28;20079;-73
2022/06/25 00:10:52;;;;;;;0.63;0.63;;;;;;;;;;5021466;28;20040;-73
2022/06/25 00:13:18;;;;;;;3.00;0.60;;;;;;;;;;5016390;28;20107;-73
2022/06/25 00:15:45;;;;;;;0.85;0.75;;;;;;;;;;5015337;28;20037;-73
2022/06/25 00:18:14;;;;;;;0.10;0.10;;;;;;;;;;5015227;28;20030;-74
2022/06/25 00:20:39;;;;;;;0.60;0.40;;;;;;;;;;5016243;28;20025;-73
2022/06/25 00:23:05;;;;;;;1.00;0.63;;;;;;;;;;5016142;28;20080;-73
2022/06/25 00:25:32;;;;;;;0.20;0.20;;;;;;;;;;5021016;28;20033;-73
2022/06/25 00:28:03;;;;;;;0.63;0.60;;;;;;;;;;5018629;28;20037;-73
2022/06/25 00:30:28;;;;;;;0.30;0.17;;;;;;;;;;5015426;28;20033;-73
2022/06/25 00:32:56;;;;;;;0.40;0.40;;;;;;;;;;5015892;28;20025;-73
2022/06/25 00:35:24;;;;;;;0.10;0.10;;;;;;;;;;5011363;28;20030;-73
2022/06/25 00:37:52;;;;;;;0.80;0.38;;;;;;;;;;5014712;28;20475;-73
2022/06/25 00:40:18;;;;;;;0.68;0.43;;;;;;;;;;5014683;28;20030;-73
2022/06/25 00:42:44;;;;;;;0.30;0.30;;;;;;;;;;5016264;28;20366;-73
2022/06/25 00:45:10;;;;;;;0.10;0.10;;;;;;;;;;5014774;28;20104;-73
2022/06/25 00:47:36;;;;;;;0.40;0.40;;;;;;;;;;5015683;28;20097;-73
2022/06/25 00:50:04;;;;;;;0.30;0.30;;;;;;;;;;5016454;28;20096;-74
2022/06/25 00:52:32;;;;;;;0.55;0.55;;;;;;;;;;5016351;28;20026;-73
2022/06/25 00:55:05;;;;;;;0.30;0.30;;;;;;;;;;5014416;28;20057;-73
2022/06/25 00:57:31;;;;;;;0.47;0.47;;;;;;;;;;5015986;28;20355;-73
2022/06/25 01:00:09;;;;;;;0.35;0.35;;;;;;;;;;5014675;28;20057;-73
2022/06/25 01:02:41;;;;;;;0.10;0.10;;;;;;;;;;4999279;28;20034;-73
2022/06/25 01:05:07;;;;;;;;;;;;;;;;;;5015370;28;20358;-73
2022/06/25 01:07:34;;;;;;;0.63;0.50;;;;;;;;;;5021517;28;19909;-74
2022/06/25 01:10:03;;;;;;;0.43;0.30;;;;;;;;;;5008290;28;20156;-73
2022/06/25 01:12:28;;;;;;;0.40;0.40;;;;;;;;;;5007952;28;20037;-74
2022/06/25 01:15:09;;;;;;;0.63;0.63;;;;;;;;;;5005044;28;20029;-73
2022/06/25 01:17:38;;;;;;;0.20;0.20;;;;;;;;;;5014509;28;20022;-74
2022/06/25 01:20:04;;;;;;;1.23;0.85;;;;;;;;;;5016380;28;20383;-73
2022/06/25 01:22:31;;;;;;;0.45;0.45;;;;;;;;;;5012941;28;20099;-72
2022/06/25 01:24:57;;;;;;;0.20;0.20;;;;;;;;;;5016005;28;20026;-73
2022/06/25 01:27:23;;;;;;;0.45;0.45;;;;;;;;;;5015152;28;20147;-73
2022/06/25 01:29:48;;;;;;;0.10;0.10;;;;;;;;;;5014130;28;20065;-74
2022/06/25 01:32:13;;;;;;;0.30;0.30;;;;;;;;;;5013084;28;20502;-73
2022/06/25 01:34:41;;;;;;;1.25;1.23;;;;;;;;;;5014786;28;20037;-74
2022/06/25 01:37:06;;;;;;;0.73;0.47;;;;;;;;;;5014879;28;20091;-73
2022/06/25 01:39:32;;;;;;;0.43;0.43;;;;;;;;;;5012666;28;20034;-73
2022/06/25 01:41:57;;;;;;;0.38;0.38;;;;;;;;;;4994371;28;20034;-73
2022/06/25 01:44:23;;;;;;;0.28;0.25;;;;;;;;;;5007417;28;20042;-73
2022/06/25 01:46:49;;;;;;;1.15;0.75;;;;;;;;;;5013916;28;20096;-74
2022/06/25 01:49:14;;;;;;;0.52;0.45;;;;;;;;;;5013349;28;20104;-74
2022/06/25 01:51:42;;;;;;;0.17;0.17;;;;;;;;;;5022306;28;20064;-74
2022/06/25 01:54:12;;;;;;;0.63;0.57;;;;;;;;;;5013657;28;20131;-73
2022/06/25 01:56:37;;;;;;;0.28;0.28;;;;;;;;;;5011631;28;20026;-74
2022/06/25 01:59:05;;;;;;;3.10;1.10;;;;;;;;;;5013972;28;20160;-73
2022/06/25 02:01:35;;;;;;;0.30;0.30;;;;;;;;;;5011575;28;20051;-75
2022/06/25 02:04:00;;;;;;;0.40;0.40;;;;;;;;;;5014059;28;20026;-73
2022/06/25 02:06:26;;;;;;;0.35;0.35;;;;;;;;;;5011016;28;20036;-74
2022/06/25 02:08:51;;;;;;;0.35;0.35;;;;;;;;;;5014096;28;20025;-73
2022/06/25 02:11:16;;;;;;;0.60;0.30;;;;;;;;;;5014486;28;20042;-74
2022/06/25 02:13:42;;;;;;;0.47;0.43;;;;;;;;;;5002702;28;20448;-74
2022/06/25 02:16:07;;;;;;;0.43;0.43;;;;;;;;;;5002685;28;20025;-74
2022/06/25 02:18:33;;;;;;;0.90;0.85;;;;;;;;;;5013970;28;20037;-74
2022/06/25 02:21:00;;;;;;;0.40;0.40;;;;;;;;;;5013651;28;20057;-74
2022/06/25 02:23:26;;;;;;;0.30;0.30;;;;;;;;;;5012401;28;20451;-74
2022/06/25 02:25:53;;;;;;;0.63;0.40;;;;;;;;;;5013896;28;20076;-73
2022/06/25 02:28:21;;;;;;;0.65;0.63;;;;;;;;;;5013535;28;20034;-73
2022/06/25 02:30:46;;;;;;;1.13;0.88;;;;;;;;;;5011701;28;20068;-73
2022/06/25 02:33:13;;;;;;;0.05;0.05;;;;;;;;;;5012941;28;20061;-73
2022/06/25 02:35:41;;;;;;;0.60;0.60;;;;;;;;;;5014226;28;20064;-74
2022/06/25 02:38:07;;;;;;;1.40;0.85;;;;;;;;;;5013181;28;20017;-74
2022/06/25 02:40:32;;;;;;;0.20;0.20;;;;;;;;;;5012128;28;20184;-74
2022/06/25 02:42:57;;;;;;;0.15;0.15;;;;;;;;;;5013499;28;20033;-74
2022/06/25 02:45:25;;;;;;;0.20;0.20;;;;;;;;;;5013200;28;20033;-74
2022/06/25 02:47:50;;;;;;;0.85;0.75;;;;;;;;;;5015910;28;20026;-73
2022/06/25 02:50:16;;;;;;;0.30;0.30;;;;;;;;;;5014025;28;20036;-73
2022/06/25 02:52:43;;;;;;;0.40;0.40;;;;;;;;;;5013486;28;20021;-74
2022/06/25 02:55:09;;;;;;;0.30;0.30;;;;;;;;;;5014058;28;20025;-74
2022/06/25 03:00:20;;;;;;;0.30;0.20;;;;;;;;;;5013674;28;20386;-73
2022/06/25 03:02:48;;;;;;;0.28;0.28;;;;;;;;;;5012097;28;20042;-74
2022/06/25 03:05:15;;;;;;;1.08;0.45;;;;;;;;;;5013207;28;20166;-73
2022/06/25 03:07:43;;;;;;;0.22;0.22;;;;;;;;;;5017851;28;20334;-74
2022/06/25 03:10:09;;;;;;;0.30;0.30;;;;;;;;;;5013884;28;20507;-73
2022/06/25 03:12:35;;;;;;;0.25;0.17;;;;;;;;;;5012732;28;20037;-73
2022/06/25 03:15:05;;;;;;;0.32;0.32;;;;;;;;;;5013644;28;20034;-74
2022/06/25 03:17:32;;;;;;;0.52;0.40;;;;;;;;;;5011646;28;20026;-74
2022/06/25 03:19:58;;;;;;;0.38;0.28;;;;;;;;;;5008368;28;20412;-75
2022/06/25 03:22:23;;;;;;;0.38;0.32;;;;;;;;;;5012924;28;20064;-74
2022/06/25 03:24:51;;;;;;;0.63;0.40;;;;;;;;;;5008081;28;20033;-75
2022/06/25 03:27:16;;;;;;;0.00;0.00;;;;;;;;;;5013922;28;20018;-74
2022/06/25 03:29:42;;;;;;;1.08;0.80;;;;;;;;;;5012953;28;20092;-75
2022/06/25 03:32:07;;;;;;;1.13;0.88;;;;;;;;;;5013504;28;20049;-74
2022/06/25 03:34:32;;;;;;;1.10;0.85;;;;;;;;;;5013791;28;20068;-75
2022/06/25 03:36:58;;;;;;;0.57;0.47;;;;;;;;;;5013534;28;20022;-74
2022/06/25 03:39:23;;;;;;;0.65;0.60;;;;;;;;;;5017092;28;20463;-73
2022/06/25 03:41:48;;;;;;;0.28;0.28;;;;;;;;;;5016924;28;20379;-74
2022/06/25 03:44:14;;;;;;;0.20;0.20;;;;;;;;;;5016964;28;20034;-74
2022/06/25 03:46:42;;;;;;;0.28;0.10;;;;;;;;;;5016288;28;20033;-74
2022/06/25 03:49:10;;;;;;;0.20;0.20;;;;;;;;;;5016064;28;20358;-74
2022/06/25 03:51:37;;;;;;;0.55;0.40;;;;;;;;;;5015703;28;20033;-74
2022/06/25 03:54:03;;;;;;;1.60;0.85;;;;;;;;;;5016629;28;20030;-74
2022/06/25 03:56:28;;;;;;;0.80;0.80;;;;;;;;;;5014716;28;20029;-75
2022/06/25 03:58:54;;;;;;;1.92;0.75;;;;;;;;;;5016844;28;20041;-74
2022/06/25 04:01:21;;;;;;;2.42;0.98;;;;;;;;;;5015836;28;20576;-74
2022/06/25 04:03:46;;;;;;;0.10;0.10;;;;;;;;;;5016683;28;20083;-75
2022/06/25 04:06:12;;;;;;;0.38;0.38;;;;;;;;;;5016074;28;20030;-75
2022/06/25 04:08:37;;;;;;;0.10;0.10;;;;;;;;;;5016612;28;20048;-74
2022/06/25 04:11:06;;;;;;;0.40;0.40;;;;;;;;;;5016940;28;20029;-74
2022/06/25 04:13:31;;;;;;;0.38;0.38;;;;;;;;;;5015456;28;20470;-75
2022/06/25 04:15:57;;;;;;;0.20;0.20;;;;;;;;;;5023032;28;20064;-75
2022/06/25 04:18:22;;;;;;;0.20;0.20;;;;;;;;;;5019978;28;20041;-75
2022/06/25 04:20:52;;;;;;;0.20;0.20;;;;;;;;;;5016393;28;20122;-75
2022/06/25 04:23:19;;;;;;;4.70;0.35;;;;;;;;;;5017389;28;20443;-75
2022/06/25 04:25:50;;;;;;;1.05;0.60;;;;;;;;;;5016993;28;20104;-75
2022/06/25 04:30:59;;;;;;;0.30;0.30;;;;;;;;;;4998942;28;20097;-76
2022/06/25 04:33:26;;;;;;;2.03;0.55;;;;;;;;;;5016921;28;20037;-75
2022/06/25 04:35:52;;;;;;;0.52;0.40;;;;;;;;;;5014998;28;20033;-75
2022/06/25 04:38:17;;;;;;;0.60;0.60;;;;;;;;;;4998359;28;20037;-75
2022/06/25 04:40:42;;;;;;;0.57;0.43;;;;;;;;;;5016887;28;20030;-75
2022/06/25 04:43:08;;;;;;;0.40;0.40;;;;;;;;;;5015312;28;20026;-73
2022/06/25 04:45:34;;;;;;;16.90;1.23;;;;;;;;;;5016443;28;20171;-75
2022/06/25 04:48:02;;;;;;;0.10;0.10;;;;;;;;;;5018160;28;20033;-75
2022/06/25 04:50:29;;;;;;;0.90;0.73;;;;;;;;;;5023807;28;20017;-76
2022/06/25 04:52:59;;;;;;;0.73;0.73;;;;;;;;;;5016001;28;20025;-75
2022/06/25 04:55:26;;;;;;;0.30;0.30;;;;;;;;;;5016092;28;20037;-76
2022/06/25 04:57:52;;;;;;;0.32;0.32;;;;;;;;;;5015326;28;20128;-75
2022/06/25 05:00:17;;;;;;;0.20;0.20;;;;;;;;;;5015293;28;20080;-74
2022/06/25 05:02:45;;;;;;;1.83;0.75;;;;;;;;;;5000255;28;20036;-75
2022/06/25 05:05:12;;;;;;;0.47;0.47;;;;;;;;;;5015854;28;20072;-76
2022/06/25 05:07:40;;;;;;;0.30;0.30;;;;;;;;;;5016361;28;20109;-76
2022/06/25 05:10:06;;;;;;;0.43;0.43;;;;;;;;;;5015475;28;20025;-76
2022/06/25 05:15:15;;;;;;;0.20;0.20;;;;;;;;;;5016286;28;20037;-75
2022/06/25 05:17:40;;;;;;;0.30;0.30;;;;;;;;;;5014213;28;20029;-75
2022/06/25 05:20:06;;;;;;;0.40;0.40;;;;;;;;;;5015645;28;20356;-75
2022/06/25 05:22:31;;;;;;;0.47;0.35;;;;;;;;;;5011560;28;20026;-76
2022/06/25 05:24:57;;;;;;;0.10;0.10;;;;;;;;;;5002907;28;20056;-76
2022/06/25 05:27:30;;;;;;;2.10;0.32;;;;;;;;;;5006017;28;20348;-76
2022/06/25 05:30:09;;;;;;;0.65;0.65;;;;;;;;;;4996429;28;20100;-76
2022/06/25 05:32:37;;;;;;;0.30;0.25;;;;;;;;;;5015217;28;20565;-76
2022/06/25 05:35:03;;;;;;;0.55;0.52;;;;;;;;;;4998780;28;20601;-76
2022/06/25 05:37:30;;;;;;;3.63;0.65;;;;;;;;;;5015065;28;20120;-75
2022/06/25 05:39:56;;;;;;;0.65;0.35;;;;;;;;;;5015584;28;20505;-75
2022/06/25 05:42:21;;;;;;;0.40;0.40;;;;;;;;;;5013855;28;20022;-75
2022/06/25 05:44:47;;;;;;;0.82;0.40;;;;;;;;;;5014786;28;20053;-75
2022/06/25 05:47:15;;;;;;;0.30;0.30;;;;;;;;;;5024600;28;20018;-76
2022/06/25 05:49:43;;;;;;;0.82;0.82;;;;;;;;;;5014861;28;20026;-74
2022/06/25 05:52:10;;;;;;;1.80;0.60;;;;;;;;;;5013543;28;20160;-75
2022/06/25 05:54:36;;;;;;;0.95;0.73;;;;;;;;;;5015546;28;20033;-75
2022/06/25 05:57:01;;;;;;;0.55;0.43;;;;;;;;;;5014924;28;20412;-75
2022/06/25 05:59:27;;;;;;;1.00;0.55;;;;;;;;;;5013389;28;20029;-75
2022/06/25 06:01:54;;;;;;;2.53;0.65;;;;;;;;;;5014156;28;20088;-75
2022/06/25 06:04:20;;;;;;;0.65;0.47;;;;;;;;;;5015639;28;20021;-75
2022/06/25 06:06:47;;;;;;;2.30;0.60;;;;;;;;;;5015287;28;20076;-76
2022/06/25 06:09:12;;;;;;;0.35;0.13;;;;;;;;;;5010311;28;20104;-75
2022/06/25 06:11:38;;;;;;;0.47;0.47;;;;;;;;;;5015386;28;20402;-75
2022/06/25 06:14:03;;;;;;;0.63;0.63;;;;;;;;;;5025774;28;20037;-83
2022/06/25 06:16:28;;;;;;;0.80;0.32;;;;;;;;;;5014829;28;20030;-83
2022/06/25 06:18:54;;;;;;;0.60;0.57;;;;;;;;;;5025575;28;20030;-82
2022/06/25 06:21:19;;;;;;;0.32;0.20;;;;;;;;;;5014407;28;20022;-83
2022/06/25 06:23:47;;;;;;;1.33;1.10;;;;;;;;;;5015696;28;20030;-80
2022/06/25 06:26:12;;;;;;;0.70;0.40;;;;;;;;;;5014938;28;20589;-81
2022/06/25 06:28:40;;;;;;;0.43;0.43;;;;;;;;;;5019434;28;20018;-82
2022/06/25 06:31:05;;;;;;;0.30;0.30;;;;;;;;;;5015101;28;20048;-83
2022/06/25 06:33:31;;;;;;;0.47;0.47;;;;;;;;;;5014745;28;20446;-81
2022/06/25 06:35:56;;;;;;;0.40;0.25;;;;;;;;;;5014534;28;20363;-83
2022/06/25 06:38:21;;;;;;;0.15;0.15;;;;;;;;;;5012787;28;20026;-82
2022/06/25 06:40:49;;;;;;;0.13;0.13;;;;;;;;;;5017888;28;20032;-82
2022/06/25 06:43:16;;;;;;;0.22;0.22;;;;;;;;;;5023246;28;20451;-82
2022/06/25 06:45:46;;;;;;;8.65;0.68;;;;;;;;;;5019254;28;20029;-82
2022/06/25 06:48:14;;;;;;;0.85;0.63;;;;;;;;;;5015312;28;20391;-83
2022/06/25 06:50:39;;;;;;;1.58;0.15;;;;;;;;;;5012975;28;20346;-82
2022/06/25 06:53:05;;;;;;;11.63;1.02;;;;;;;;;;5011526;28;20112;-82
2022/06/25 06:55:30;;;;;;;0.38;0.38;;;;;;;;;;5014952;28;20386;-82
2022/06/25 06:57:58;;;;;;;4.63;1.95;;;;;;;;;;5014417;28;20034;-82
2022/06/25 07:00:25;;;;;;;0.20;0.20;;;;;;;;;;5004258;28;20033;-81
2022/06/25 07:02:53;;;;;;;0.22;0.20;;;;;;;;;;5017709;28;20025;-81
2022/06/25 07:05:18;;;;;;;2.45;1.33;;;;;;;;;;5013920;28;20101;-81
2022/06/25 07:07:47;;;;;;;1.13;0.50;;;;;;;;;;5013848;28;20101;-82
2022/06/25 07:10:13;;;;;;;0.25;0.25;;;;;;;;;;5016957;28;20101;-81
2022/06/25 07:12:38;;;;;;;0.32;0.25;;;;;;;;;;5020370;28;20097;-79
2022/06/25 07:15:07;;;;;;;0.52;0.52;;;;;;;;;;5015081;28;20056;-77
2022/06/25 07:17:40;;;;;;;0.45;0.35;;;;;;;;;;5021852;28;20025;-80
2022/06/25 07:20:06;;;;;;;2.15;0.93;;;;;;;;;;5019834;28;20402;-80
2022/06/25 07:22:34;;;;;;;0.43;0.35;;;;;;;;;;5019520;28;20028;-79
2022/06/25 07:25:00;;;;;;;0.22;0.22;;;;;;;;;;5018030;28;20424;-80
2022/06/25 07:27:27;;;;;;;4.00;1.55;;;;;;;;;;5026086;28;20056;-81
2022/06/25 07:29:55;;;;;;;0.75;0.30;;;;;;;;;;5019946;28;20395;-81
2022/06/25 07:32:20;;;;;;;5.68;4.05;;;;;;;;;;5016766;28;20022;-83
2022/06/25 07:34:46;;;;;;;2.83;1.48;;;;;;;;;;5017747;28;20097;-81
2022/06/25 07:37:12;;;;;;;0.43;0.43;;;;;;;;;;5017735;28;20022;-82
2022/06/25 07:39:40;;;;;;;0.30;0.30;;;;;;;;;;5025835;28;20083;-80
2022/06/25 07:42:08;;;;;;;0.40;0.40;;;;;;;;;;5036604;28;20021;-81
2022/06/25 07:44:33;;;;;;;0.17;0.13;;;;;;;;;;5018345;28;20025;-82
2022/06/25 07:46:58;;;;;;;0.30;0.30;;;;;;;;;;5020367;28;20041;-83
2022/06/25 07:49:24;;;;;;;1.30;0.40;;;;;;;;;;5017628;28;20033;-83
2022/06/25 07:51:59;;;;;;;0.20;0.20;;;;;;;;;;5018405;28;20052;-83
2022/06/25 07:54:28;;;;;;;0.40;0.30;;;;;;;;;;5016484;28;20056;-83
2022/06/25 07:56:54;;;;;;;0.20;0.20;;;;;;;;;;5016746;28;20030;-82
2022/06/25 07:59:20;;;;;;;0.52;0.52;;;;;;;;;;5014918;28;20468;-83
2022/06/25 08:01:46;;;;;;;0.30;0.30;;;;;;;;;;5016512;28;20179;-83
2022/06/25 08:04:14;;;;;;;0.20;0.20;;;;;;;;;;5017988;28;20446;-83
2022/06/25 08:06:41;;;;;;;0.20;0.20;;;;;;;;;;5015256;28;20037;-80
2022/06/25 08:09:11;;;;;;;0.50;0.50;;;;;;;;;;5015308;28;20030;-82
2022/06/25 08:11:37;;;;;;;5.60;1.20;;;;;;;;;;5017598;28;20033;-82
2022/06/25 08:14:03;;;;;;;0.20;0.20;;;;;;;;;;5016170;28;20459;-82
2022/06/25 08:16:28;;;;;;;0.25;0.25;;;;;;;;;;5017804;28;20038;-83
2022/06/25 08:18:56;;;;;;;1.45;1.35;;;;;;;;;;5017092;28;20037;-80
2022/06/25 08:21:22;;;;;;;0.15;0.15;;;;;;;;;;5016180;28;20026;-82
2022/06/25 08:23:47;;;;;;;0.60;0.60;;;;;;;;;;5016224;28;20060;-81
2022/06/25 08:26:15;;;;;;;0.10;0.10;;;;;;;;;;5015704;28;20343;-80
2022/06/25 08:28:41;;;;;;;0.25;0.08;;;;;;;;;;5014793;28;20033;-81
2022/06/25 08:31:07;;;;;;;0.15;0.15;;;;;;;;;;5015300;28;20037;-82
2022/06/25 08:33:32;;;;;;;0.38;0.38;;;;;;;;;;4998602;28;20018;-83
2022/06/25 08:36:00;;;;;;;0.65;0.50;;;;;;;;;;5013037;28;20026;-83
2022/06/25 08:38:26;;;;;;;0.20;0.20;;;;;;;;;;5015828;28;20030;-81
2022/06/25 08:41:01;;;;;;;0.30;0.30;;;;;;;;;;5016284;28;20108;-83
2022/06/25 08:43:29;;;;;;;0.30;0.30;;;;;;;;;;5015702;28;20040;-82
2022/06/25 08:45:55;;;;;;;0.85;0.63;;;;;;;;;;5021833;28;20056;-83
2022/06/25 08:48:24;;;;;;;0.45;0.45;;;;;;;;;;5024674;28;20447;-83
2022/06/25 08:50:50;;;;;;;1.65;0.77;;;;;;;;;;5016397;28;20426;-83
2022/06/25 08:53:21;;;;;;;0.75;0.57;;;;;;;;;;5014300;28;20491;-82
2022/06/25 08:55:49;;;;;;;1.38;0.30;;;;;;;;;;5016399;28;20088;-82
2022/06/25 08:58:14;;;;;;;0.10;0.10;;;;;;;;;;5016263;28;20037;-82
2022/06/25 09:00:45;;;;;;;0.30;0.30;;;;;;;;;;5016638;28;20028;-82
2022/06/25 09:03:11;;;;;;;0.40;0.40;;;;;;;;;;5013045;28;20037;-83
2022/06/25 09:05:38;;;;;;;0.82;0.57;;;;;;;;;;4997541;28;20021;-82
2022/06/25 09:08:05;;;;;;;0.30;0.30;;;;;;;;;;5016237;28;20428;-80
2022/06/25 09:10:36;;;;;;;1.27;0.40;;;;;;;;;;5016250;28;20038;-82
2022/06/25 09:13:06;;;;;;;0.98;0.35;;;;;;;;;;5029807;28;20045;-81
2022/06/25 09:15:33;;;;;;;0.40;0.20;;;;;;;;;;5023899;28;20030;-81
2022/06/25 09:18:12;;;;;;;0.20;0.20;;;;;;;;;;5011594;28;20088;-82
2022/06/25 09:21:03;;;;;;;0.50;0.50;;;;;;;;;;5012469;28;20025;-87
2022/06/25 09:23:31;;;;;;;1.00;0.70;;;;;;;;;;5015464;28;20018;-81
2022/06/25 09:26:07;;;;;;;0.52;0.52;;;;;;;;;;5014149;28;20099;-82
2022/06/25 09:28:34;;;;;;;0.10;0.10;;;;;;;;;;5017358;28;20022;-81
2022/06/25 09:31:02;;;;;;;0.13;0.13;;;;;;;;;;5032142;28;20041;-82
2022/06/25 09:33:32;;;;;;;3.33;0.68;;;;;;;;;;5020371;28;20037;-82
2022/06/25 09:36:00;;;;;;;4.78;0.85;;;;;;;;;;4999364;28;20068;-82
2022/06/25 09:38:26;;;;;;;0.47;0.47;;;;;;;;;;5006049;28;20037;-82
2022/06/25 09:40:54;;;;;;;2.25;0.35;;;;;;;;;;5020546;28;20026;-81
2022/06/25 09:43:35;;;;;;;0.25;0.25;;;;;;;;;;4997338;28;20495;-80
2022/06/25 09:46:05;;;;;;;0.00;0.00;;;;;;;;;;5013248;28;20179;-82
2022/06/25 09:48:33;;;;;;;1.00;0.47;;;;;;;;;;5014101;28;20022;-82
2022/06/25 09:51:09;;;;;;;0.70;0.70;;;;;;;;;;5011592;28;20041;-84
2022/06/25 09:53:45;;;;;;;0.30;0.30;;;;;;;;;;5012929;28;20500;-83
2022/06/25 09:56:17;;;;;;;0.50;0.50;;;;;;;;;;5013544;28;20025;-82
2022/06/25 09:58:45;;;;;;;0.17;0.17;;;;;;;;;;5012073;28;20021;-82
2022/06/25 10:01:23;;;;;;;0.40;0.40;;;;;;;;;;5011694;28;20025;-82
2022/06/25 10:03:57;;;;;;;0.40;0.30;;;;;;;;;;5013871;28;20088;-80
2022/06/25 10:06:23;;;;;;;0.10;0.10;;;;;;;;;;5014224;28;20014;-83
2022/06/25 10:08:58;;;;;;;0.15;0.15;;;;;;;;;;4988570;28;20034;-83
2022/06/25 10:11:30;;;;;;;0.35;0.35;;;;;;;;;;4991433;28;20053;-83
2022/06/25 10:13:55;;;;;;;;;;;;;;;;;;5012338;28;20040;-82
2022/06/25 10:16:24;;;;;;;0.35;0.25;;;;;;;;;;5015425;28;19909;-82
2022/06/25 10:18:55;;;;;;;0.20;0.20;;;;;;;;;;5010193;28;20080;-79
2022/06/25 10:21:23;;;;;;;0.32;0.32;;;;;;;;;;4990296;28;20030;-81
2022/06/25 10:23:53;;;;;;;0.28;0.17;;;;;;;;;;5010283;28;20052;-81
2022/06/25 10:26:20;;;;;;;0.25;0.20;;;;;;;;;;5012532;28;20050;-81
2022/06/25 10:28:46;;;;;;;0.30;0.30;;;;;;;;;;5013766;28;20014;-80
2022/06/25 10:31:25;;;;;;;0.50;0.40;;;;;;;;;;4994261;28;20105;-80
2022/06/25 10:34:04;;;;;;;0.63;0.63;;;;;;;;;;5012180;28;20025;-80
2022/06/25 10:39:26;;;;;;;1.05;0.60;;;;;;;;;;5010575;28;20165;-81
2022/06/25 10:45:33;;;;;;;0.30;0.30;;;;;;;;;;5010643;28;20114;-81
2022/06/25 10:48:00;;;;;;;0.10;0.10;;;;;;;;;;5012394;28;20053;-81
2022/06/25 10:50:28;;;;;;;0.08;0.08;;;;;;;;;;5013228;28;20018;-81
2022/06/25 10:53:08;;;;;;;1.27;0.50;;;;;;;;;;5013794;28;20040;-78
2022/06/25 10:55:34;;;;;;;0.63;0.32;;;;;;;;;;5008930;28;20022;-80
2022/06/25 10:58:21;;;;;;;0.45;0.45;;;;;;;;;;5014640;28;20447;-82
2022/06/25 11:00:53;;;;;;;0.13;0.13;;;;;;;;;;5008471;28;20040;-83
2022/06/25 11:03:45;;;;;;;0.50;0.50;;;;;;;;;;5014106;28;20022;-82
2022/06/25 11:06:18;;;;;;;;;;;;;;;;;;4988193;28;20380;-81
2022/06/25 11:08:46;;;;;;;1.08;0.98;;;;;;;;;;4999357;28;19913;-81
2022/06/25 11:11:24;;;;;;;0.30;0.30;;;;;;;;;;5011430;28;20041;-82
2022/06/25 11:13:53;;;;;;;0.20;0.20;;;;;;;;;;5003295;28;20054;-81
2022/06/25 11:16:19;;;;;;;1.85;0.63;;;;;;;;;;4997087;28;20405;-80
2022/06/25 11:18:46;;;;;;;0.20;0.20;;;;;;;;;;4998759;28;20029;-81
2022/06/25 11:21:28;;;;;;;0.45;0.45;;;;;;;;;;5013347;28;20033;-80
2022/06/25 11:24:15;;;;;;;0.77;0.30;;;;;;;;;;5007410;28;20049;-81
2022/06/25 11:29:47;;;;;;;0.45;0.45;;;;;;;;;;5009298;28;20100;-83
2022/06/25 11:32:20;;;;;;;0.45;0.40;;;;;;;;;;4994808;28;20121;-80
2022/06/25 11:34:54;;;;;;;3.22;1.42;;;;;;;;;;4988564;28;20054;-81
2022/06/25 11:37:23;;;;;;;0.75;0.75;;;;;;;;;;5009965;28;20022;-81
2022/06/25 11:39:51;;;;;;;0.22;0.22;;;;;;;;;;4991224;28;20092;-80
2022/06/25 11:42:17;;;;;;;0.52;0.52;;;;;;;;;;5014624;28;20489;-81
2022/06/25 11:44:53;;;;;;;1.33;0.93;;;;;;;;;;4996536;28;20030;-79
2022/06/25 11:47:24;;;;;;;0.22;0.22;;;;;;;;;;4995083;28;20033;-79
2022/06/25 11:49:50;;;;;;;0.30;0.30;;;;;;;;;;5009505;28;20108;-80
2022/06/25 11:52:21;;;;;;;0.28;0.25;;;;;;;;;;5011178;28;20462;-81
2022/06/25 11:54:59;;;;;;;1.25;1.13;;;;;;;;;;4991592;28;20502;-81
2022/06/25 11:57:28;;;;;;;1.30;0.52;;;;;;;;;;4997247;28;20129;-80
2022/06/25 11:59:56;;;;;;;3.30;1.00;;;;;;;;;;5015919;28;20036;-81
2022/06/25 12:02:22;;;;;;;0.43;0.32;;;;;;;;;;5014194;28;20096;-81
2022/06/25 12:04:59;;;;;;;0.30;0.30;;;;;;;;;;4998970;28;20458;-81
2022/06/25 12:07:34;;;;;;;0.20;0.20;;;;;;;;;;5012378;28;20117;-80
2022/06/25 12:10:07;;;;;;;0.30;0.30;;;;;;;;;;5000092;28;20025;-81
2022/06/25 12:12:34;;;;;;;0.35;0.35;;;;;;;;;;4993130;28;20021;-81
2022/06/25 12:15:01;;;;;;;0.20;0.20;;;;;;;;;;5016302;28;20026;-81
2022/06/25 12:17:38;;;;;;;2.72;1.25;;;;;;;;;;5000158;28;20018;-84
2022/06/25 12:20:07;;;;;;;0.55;0.10;;;;;;;;;;5013305;28;20042;-79
2022/06/25 12:22:43;;;;;;;1.45;0.22;;;;;;;;;;5013670;28;20025;-79
2022/06/25 12:25:21;;;;;;;0.20;0.10;;;;;;;;;;5002136;28;20033;-81
2022/06/25 12:27:48;;;;;;;0.60;0.40;;;;;;;;;;5010385;28;20184;-81
2022/06/25 12:30:28;;;;;;;0.63;0.50;;;;;;;;;;5000107;28;20470;-80
2022/06/25 12:32:57;;;;;;;0.20;0.20;;;;;;;;;;4999458;28;20033;-80
2022/06/25 12:35:27;;;;;;;0.30;0.30;;;;;;;;;;5014064;28;20040;-78
2022/06/25 12:38:14;;;;;;;0.38;0.38;;;;;;;;;;4996665;28;20046;-81
2022/06/25 12:40:45;;;;;;;0.75;0.73;;;;;;;;;;5013609;28;20041;-82
2022/06/25 12:43:46;;;;;;;0.32;0.30;;;;;;;;;;5013784;28;20125;-81
2022/06/25 12:46:12;;;;;;;0.88;0.50;;;;;;;;;;4995287;28;20037;-81
2022/06/25 12:48:37;;;;;;;0.65;0.65;;;;;;;;;;4996907;28;20023;-79
2022/06/25 12:51:20;;;;;;;0.55;0.55;;;;;;;;;;5011606;28;20147;-80
2022/06/25 12:53:49;;;;;;;0.30;0.30;;;;;;;;;;5011836;28;20065;-80
2022/06/25 12:56:16;;;;;;;0.20;0.20;;;;;;;;;;5017939;28;20709;-80
2022/06/25 12:58:43;;;;;;;0.20;0.20;;;;;;;;;;4998613;28;20030;-79
2022/06/25 13:01:23;;;;;;;2.05;0.40;;;;;;;;;;5015769;28;20048;-81
2022/06/25 13:04:07;;;;;;;0.32;0.30;;;;;;;;;;5011822;28;20025;-78
2022/06/25 13:06:35;;;;;;;0.28;0.28;;;;;;;;;;5009505;28;20026;-80
2022/06/25 13:09:03;;;;;;;1.45;0.40;;;;;;;;;;5014702;28;20446;-80
2022/06/25 13:11:28;;;;;;;0.35;0.30;;;;;;;;;;5010675;28;20479;-81
2022/06/25 13:13:54;;;;;;;0.22;0.22;;;;;;;;;;4996890;28;20040;-79
2022/06/25 13:16:19;;;;;;;0.25;0.25;;;;;;;;;;5007426;28;20042;-80
2022/06/25 13:18:47;;;;;;;2.90;0.28;;;;;;;;;;4996315;28;20040;-80
2022/06/25 13:21:25;;;;;;;0.17;0.17;;;;;;;;;;5013186;28;20125;-79
2022/06/25 13:23:50;;;;;;;0.13;0.13;;;;;;;;;;4997129;28;20067;-80
2022/06/25 13:26:16;;;;;;;0.60;0.43;;;;;;;;;;5015393;28;20022;-79
2022/06/25 13:28:44;;;;;;;0.45;0.45;;;;;;;;;;5013454;28;20018;-80
2022/06/25 13:31:12;;;;;;;0.70;0.47;;;;;;;;;;5011841;28;20382;-78
2022/06/25 13:33:38;;;;;;;0.30;0.30;;;;;;;;;;4996044;28;20065;-80
2022/06/25 13:36:04;;;;;;;1.85;0.88;;;;;;;;;;5009839;28;20115;-80
2022/06/25 13:38:36;;;;;;;0.47;0.47;;;;;;;;;;5013327;28;20014;-80
2022/06/25 13:41:09;;;;;;;;;;;;;;;;;;5014258;28;20029;-80
2022/06/25 13:43:41;;;;;;;0.10;0.10;;;;;;;;;;5011724;28;20231;-80
2022/06/25 13:46:10;;;;;;;0.28;0.28;;;;;;;;;;5011934;28;20562;-80
2022/06/25 13:48:40;;;;;;;0.35;0.35;;;;;;;;;;5010750;28;20097;-79
2022/06/25 13:51:06;;;;;;;0.30;0.30;;;;;;;;;;5013946;28;20457;-77
2022/06/25 13:53:33;;;;;;;0.30;0.20;;;;;;;;;;5013664;28;20112;-79
2022/06/25 13:56:06;;;;;;;0.80;0.63;;;;;;;;;;5012121;28;20367;-80
2022/06/25 13:58:32;;;;;;;0.40;0.30;;;;;;;;;;5027251;28;20101;-80
2022/06/25 14:00:58;;;;;;;0.20;0.20;;;;;;;;;;5013791;28;20117;-79
2022/06/25 14:03:30;;;;;;;0.40;0.40;;;;;;;;;;5011929;28;20170;-80
2022/06/25 14:05:58;;;;;;;2.85;0.47;;;;;;;;;;4993733;28;20060;-80
2022/06/25 14:08:30;;;;;;;0.50;0.50;;;;;;;;;;4997258;28;20447;-80
2022/06/25 14:10:59;;;;;;;0.32;0.32;;;;;;;;;;5023906;28;20022;-80
2022/06/25 14:13:32;;;;;;;1.15;0.20;;;;;;;;;;5004315;28;20105;-82
2022/06/25 14:15:58;;;;;;;0.00;0.00;;;;;;;;;;5009482;28;20447;-80
2022/06/25 14:18:25;;;;;;;0.43;0.43;;;;;;;;;;5009765;28;20044;-80
2022/06/25 14:20:53;;;;;;;0.40;0.40;;;;;;;;;;5008256;28;20044;-81
2022/06/25 14:23:19;;;;;;;0.20;0.20;;;;;;;;;;5010826;28;20032;-81
2022/06/25 14:25:44;;;;;;;0.45;0.40;;;;;;;;;;5010045;28;20034;-80
2022/06/25 14:28:12;;;;;;;0.45;0.32;;;;;;;;;;5012553;28;20053;-81
2022/06/25 14:30:38;;;;;;;0.20;0.20;;;;;;;;;;5012991;28;20021;-82
2022/06/25 14:33:04;;;;;;;0.35;0.32;;;;;;;;;;5014507;28;20096;-81
2022/06/25 14:35:29;;;;;;;0.45;0.25;;;;;;;;;;5005587;28;20497;-78
2022/06/25 14:43:25;;;;;;;1.25;0.40;;;;;;;;;;5012986;28;20091;-82
2022/06/25 14:45:51;;;;;;;0.40;0.28;;;;;;;;;;5011822;28;20025;-81
2022/06/25 14:48:17;;;;;;;0.95;0.60;;;;;;;;;;5014519;28;20041;-80
2022/06/25 14:50:45;;;;;;;0.35;0.30;;;;;;;;;;5010778;28;20060;-83
2022/06/25 14:53:11;;;;;;;0.50;0.47;;;;;;;;;;5010684;28;20112;-82
2022/06/25 14:55:37;;;;;;;0.20;0.20;;;;;;;;;;5014963;28;20109;-82
2022/06/25 14:58:04;;;;;;;1.10;0.70;;;;;;;;;;5013040;28;20104;-79
2022/06/25 15:00:30;;;;;;;3.10;1.20;;;;;;;;;;5002556;28;20026;-81
2022/06/25 15:02:58;;;;;;;0.75;0.30;;;;;;;;;;5003692;28;20033;-82
2022/06/25 15:05:25;;;;;;;0.20;0.20;;;;;;;;;;5012511;28;20026;-81
2022/06/25 15:07:51;;;;;;;0.43;0.38;;;;;;;;;;5011374;28;20014;-81
2022/06/25 15:10:16;;;;;;;0.55;0.40;;;;;;;;;;5012923;28;20032;-82
2022/06/25 15:12:44;;;;;;;0.40;0.35;;;;;;;;;;5011930;28;20355;-83